sensor_id;sensor_type;location;lat;lon;timestamp;pressure;altitude;pressure_sealevel;temperature;humidity
69411;BME280;56604;48.652;9.194;2023-04-27T00:02:07;96320.13;;;8.39;57.96
69411;BME280;56604;48.652;9.194;2023-04-27T00:04:33;96326.47;;;8.31;62.20
69411;BME280;56604;48.652;9.194;2023-04-27T00:06:58;96316.84;;;8.20;62.61
69411;BME280;56604;48.652;9.194;2023-04-27T00:09:23;96318.31;;;8.16;62.98
69411;BME280;56604;48.652;9.194;2023-04-27T00:11:49;96312.75;;;8.12;63.25
69411;BME280;56604;48.652;9.194;2023-04-27T00:14:14;96307.75;;;8.10;62.42
69411;BME280;56604;48.652;9.194;2023-04-27T00:16:40;96306.94;;;8.10;60.96
69411;BME280;56604;48.652;9.194;2023-04-27T00:19:05;96308.00;;;8.09;60.92
69411;BME280;56604;48.652;9.194;2023-04-27T00:21:31;96309.81;;;8.08;61.01
69411;BME280;56604;48.652;9.194;2023-04-27T00:23:56;96316.31;;;8.06;61.57
69411;BME280;56604;48.652;9.194;2023-04-27T00:26:21;96307.66;;;8.05;59.52
69411;BME280;56604;48.652;9.194;2023-04-27T00:28:47;96299.34;;;8.08;58.84
69411;BME280;56604;48.652;9.194;2023-04-27T00:31:12;96304.13;;;8.11;59.47
69411;BME280;56604;48.652;9.194;2023-04-27T00:33:38;96303.97;;;8.18;59.82
69411;BME280;56604;48.652;9.194;2023-04-27T00:36:03;96314.13;;;8.15;60.11
69411;BME280;56604;48.652;9.194;2023-04-27T00:38:29;96310.34;;;8.10;60.10
69411;BME280;56604;48.652;9.194;2023-04-27T00:41:02;96300.69;;;8.11;61.42
69411;BME280;56604;48.652;9.194;2023-04-27T00:43:27;96300.78;;;8.16;59.30
69411;BME280;56604;48.652;9.194;2023-04-27T00:45:53;96299.53;;;8.19;57.24
69411;BME280;56604;48.652;9.194;2023-04-27T00:48:18;96296.34;;;8.17;56.82
69411;BME280;56604;48.652;9.194;2023-04-27T00:50:43;96288.16;;;8.13;57.12
69411;BME280;56604;48.652;9.194;2023-04-27T00:53:09;96290.59;;;8.03;60.02
69411;BME280;56604;48.652;9.194;2023-04-27T00:55:34;96281.59;;;7.99;60.82
69411;BME280;56604;48.652;9.194;2023-04-27T00:58:00;96282.31;;;7.94;62.04
69411;BME280;56604;48.652;9.194;2023-04-27T01:00:25;96277.72;;;8.01;62.02
69411;BME280;56604;48.652;9.194;2023-04-27T01:02:51;96284.09;;;8.05;61.83
69411;BME280;56604;48.652;9.194;2023-04-27T01:05:17;96283.53;;;8.03;61.43
69411;BME280;56604;48.652;9.194;2023-04-27T01:07:43;96275.06;;;8.13;61.78
69411;BME280;56604;48.652;9.194;2023-04-27T01:10:08;96285.44;;;8.20;61.70
69411;BME280;56604;48.652;9.194;2023-04-27T01:12:34;96289.78;;;8.02;61.89
69411;BME280;56604;48.652;9.194;2023-04-27T01:14:59;96290.00;;;8.13;62.50
69411;BME280;56604;48.652;9.194;2023-04-27T01:17:25;96297.09;;;8.00;63.07
69411;BME280;56604;48.652;9.194;2023-04-27T01:19:51;96297.84;;;8.13;63.74
69411;BME280;56604;48.652;9.194;2023-04-27T01:22:19;96299.59;;;7.95;63.48
69411;BME280;56604;48.652;9.194;2023-04-27T01:24:45;96305.97;;;7.76;63.82
69411;BME280;56604;48.652;9.194;2023-04-27T01:27:11;96299.97;;;7.75;64.10
69411;BME280;56604;48.652;9.194;2023-04-27T01:29:37;96291.44;;;7.80;65.08
69411;BME280;56604;48.652;9.194;2023-04-27T01:32:03;96296.53;;;7.86;64.84
69411;BME280;56604;48.652;9.194;2023-04-27T01:34:28;96293.16;;;7.74;65.59
69411;BME280;56604;48.652;9.194;2023-04-27T01:36:54;96295.97;;;7.73;65.80
69411;BME280;56604;48.652;9.194;2023-04-27T01:39:19;96291.50;;;7.85;64.66
69411;BME280;56604;48.652;9.194;2023-04-27T01:41:44;96293.22;;;7.91;65.39
69411;BME280;56604;48.652;9.194;2023-04-27T01:44:10;96288.44;;;7.88;65.88
69411;BME280;56604;48.652;9.194;2023-04-27T01:46:36;96287.97;;;7.91;64.96
69411;BME280;56604;48.652;9.194;2023-04-27T01:49:01;96288.81;;;7.80;63.32
69411;BME280;56604;48.652;9.194;2023-04-27T01:51:27;96280.97;;;7.80;62.39
69411;BME280;56604;48.652;9.194;2023-04-27T01:53:52;96289.81;;;7.79;64.99
69411;BME280;56604;48.652;9.194;2023-04-27T01:56:17;96291.31;;;7.86;65.36
69411;BME280;56604;48.652;9.194;2023-04-27T01:58:43;96295.28;;;7.77;66.36
69411;BME280;56604;48.652;9.194;2023-04-27T02:01:08;96300.09;;;7.69;66.47
69411;BME280;56604;48.652;9.194;2023-04-27T02:03:33;96303.94;;;7.78;65.74
69411;BME280;56604;48.652;9.194;2023-04-27T02:05:59;96310.09;;;7.72;65.75
69411;BME280;56604;48.652;9.194;2023-04-27T02:08:25;96299.06;;;7.58;66.37
69411;BME280;56604;48.652;9.194;2023-04-27T02:10:50;96304.50;;;7.56;64.68
69411;BME280;56604;48.652;9.194;2023-04-27T02:13:15;96299.63;;;7.48;62.60
69411;BME280;56604;48.652;9.194;2023-04-27T02:15:41;96298.72;;;7.54;62.49
69411;BME280;56604;48.652;9.194;2023-04-27T02:18:06;96297.91;;;7.54;63.08
69411;BME280;56604;48.652;9.194;2023-04-27T02:20:32;96304.28;;;7.58;63.92
69411;BME280;56604;48.652;9.194;2023-04-27T02:22:57;96300.31;;;7.55;63.87
69411;BME280;56604;48.652;9.194;2023-04-27T02:25:23;96303.59;;;7.51;64.03
69411;BME280;56604;48.652;9.194;2023-04-27T02:27:48;96312.34;;;7.56;63.71
69411;BME280;56604;48.652;9.194;2023-04-27T02:30:14;96308.03;;;7.50;64.38
69411;BME280;56604;48.652;9.194;2023-04-27T02:32:39;96308.63;;;7.52;65.00
69411;BME280;56604;48.652;9.194;2023-04-27T02:35:06;96310.78;;;7.55;65.62
69411;BME280;56604;48.652;9.194;2023-04-27T02:37:32;96307.25;;;7.50;66.61
69411;BME280;56604;48.652;9.194;2023-04-27T02:39:58;96308.03;;;7.50;67.33
69411;BME280;56604;48.652;9.194;2023-04-27T02:42:23;96303.13;;;7.42;67.13
69411;BME280;56604;48.652;9.194;2023-04-27T02:44:49;96301.31;;;7.42;67.67
69411;BME280;56604;48.652;9.194;2023-04-27T02:47:14;96313.72;;;7.47;68.79
69411;BME280;56604;48.652;9.194;2023-04-27T02:49:40;96310.06;;;7.48;69.19
69411;BME280;56604;48.652;9.194;2023-04-27T02:52:05;96311.91;;;7.36;69.08
69411;BME280;56604;48.652;9.194;2023-04-27T02:54:31;96317.00;;;7.31;69.12
69411;BME280;56604;48.652;9.194;2023-04-27T02:56:56;96308.03;;;7.27;68.55
69411;BME280;56604;48.652;9.194;2023-04-27T02:59:21;96316.06;;;7.13;69.73
69411;BME280;56604;48.652;9.194;2023-04-27T03:01:47;96316.44;;;7.29;69.34
69411;BME280;56604;48.652;9.194;2023-04-27T03:04:13;96315.41;;;7.30;68.93
69411;BME280;56604;48.652;9.194;2023-04-27T03:06:39;96314.25;;;7.26;68.92
69411;BME280;56604;48.652;9.194;2023-04-27T03:09:05;96318.03;;;7.30;69.11
69411;BME280;56604;48.652;9.194;2023-04-27T03:11:31;96317.59;;;7.33;68.53
69411;BME280;56604;48.652;9.194;2023-04-27T03:13:56;96315.31;;;7.36;66.09
69411;BME280;56604;48.652;9.194;2023-04-27T03:16:21;96322.25;;;7.42;66.38
69411;BME280;56604;48.652;9.194;2023-04-27T03:18:47;96317.84;;;7.43;65.92
69411;BME280;56604;48.652;9.194;2023-04-27T03:21:12;96314.53;;;7.48;67.78
69411;BME280;56604;48.652;9.194;2023-04-27T03:23:38;96313.38;;;7.32;69.24
69411;BME280;56604;48.652;9.194;2023-04-27T03:26:11;96322.09;;;7.26;69.83
69411;BME280;56604;48.652;9.194;2023-04-27T03:28:37;96318.94;;;7.35;70.49
69411;BME280;56604;48.652;9.194;2023-04-27T03:31:07;96318.28;;;7.40;70.57
69411;BME280;56604;48.652;9.194;2023-04-27T03:33:33;96318.84;;;7.42;69.08
69411;BME280;56604;48.652;9.194;2023-04-27T03:35:59;96313.28;;;7.38;67.23
69411;BME280;56604;48.652;9.194;2023-04-27T03:38:25;96315.22;;;7.43;67.54
69411;BME280;56604;48.652;9.194;2023-04-27T03:40:52;96316.69;;;7.39;66.01
69411;BME280;56604;48.652;9.194;2023-04-27T03:43:18;96313.94;;;7.34;66.68
69411;BME280;56604;48.652;9.194;2023-04-27T03:45:43;96310.19;;;7.30;67.64
69411;BME280;56604;48.652;9.194;2023-04-27T03:48:09;96310.78;;;7.32;67.85
69411;BME280;56604;48.652;9.194;2023-04-27T03:50:34;96320.53;;;7.25;68.93
69411;BME280;56604;48.652;9.194;2023-04-27T03:52:59;96316.78;;;7.32;69.32
69411;BME280;56604;48.652;9.194;2023-04-27T03:55:25;96316.00;;;7.43;70.04
69411;BME280;56604;48.652;9.194;2023-04-27T03:57:50;96321.56;;;7.35;69.00
69411;BME280;56604;48.652;9.194;2023-04-27T04:00:16;96317.25;;;7.29;68.72
69411;BME280;56604;48.652;9.194;2023-04-27T04:02:42;96317.47;;;7.28;67.94
69411;BME280;56604;48.652;9.194;2023-04-27T04:05:08;96324.72;;;7.26;68.43
69411;BME280;56604;48.652;9.194;2023-04-27T04:07:33;96323.25;;;7.30;68.90
69411;BME280;56604;48.652;9.194;2023-04-27T04:09:59;96329.41;;;7.24;68.80
69411;BME280;56604;48.652;9.194;2023-04-27T04:12:24;96328.94;;;7.27;68.92
69411;BME280;56604;48.652;9.194;2023-04-27T04:14:49;96330.97;;;7.25;70.12
69411;BME280;56604;48.652;9.194;2023-04-27T04:17:15;96332.00;;;7.12;71.15
69411;BME280;56604;48.652;9.194;2023-04-27T04:19:41;96330.19;;;7.12;71.26
69411;BME280;56604;48.652;9.194;2023-04-27T04:22:06;96322.53;;;6.99;70.64
69411;BME280;56604;48.652;9.194;2023-04-27T04:24:31;96323.56;;;6.98;70.75
69411;BME280;56604;48.652;9.194;2023-04-27T04:26:57;96329.69;;;6.92;70.42
69411;BME280;56604;48.652;9.194;2023-04-27T04:29:22;96333.66;;;6.94;70.91
69411;BME280;56604;48.652;9.194;2023-04-27T04:31:48;96336.94;;;6.90;71.32
69411;BME280;56604;48.652;9.194;2023-04-27T04:34:13;96333.97;;;6.86;71.35
69411;BME280;56604;48.652;9.194;2023-04-27T04:36:39;96344.38;;;6.74;71.19
69411;BME280;56604;48.652;9.194;2023-04-27T04:39:05;96336.56;;;6.74;71.08
69411;BME280;56604;48.652;9.194;2023-04-27T04:41:31;96335.97;;;6.72;70.99
69411;BME280;56604;48.652;9.194;2023-04-27T04:43:57;96346.31;;;6.79;71.21
69411;BME280;56604;48.652;9.194;2023-04-27T04:46:22;96342.91;;;6.79;71.44
69411;BME280;56604;48.652;9.194;2023-04-27T04:48:49;96350.75;;;6.79;71.82
69411;BME280;56604;48.652;9.194;2023-04-27T04:51:15;96348.94;;;6.79;71.71
69411;BME280;56604;48.652;9.194;2023-04-27T04:53:41;96343.59;;;6.86;71.54
69411;BME280;56604;48.652;9.194;2023-04-27T04:56:10;96347.84;;;6.87;72.61
69411;BME280;56604;48.652;9.194;2023-04-27T04:58:36;96348.53;;;6.94;71.69
69411;BME280;56604;48.652;9.194;2023-04-27T05:01:01;96339.38;;;7.03;71.96
69411;BME280;56604;48.652;9.194;2023-04-27T05:03:26;96345.13;;;6.93;72.23
69411;BME280;56604;48.652;9.194;2023-04-27T05:05:52;96345.56;;;6.90;72.33
69411;BME280;56604;48.652;9.194;2023-04-27T05:08:17;96345.91;;;6.94;72.16
69411;BME280;56604;48.652;9.194;2023-04-27T05:10:55;96342.34;;;7.18;72.35
69411;BME280;56604;48.652;9.194;2023-04-27T05:13:24;96347.72;;;7.35;72.06
69411;BME280;56604;48.652;9.194;2023-04-27T05:15:50;96338.44;;;7.63;70.90
69411;BME280;56604;48.652;9.194;2023-04-27T05:18:16;96343.41;;;7.88;69.27
69411;BME280;56604;48.652;9.194;2023-04-27T05:20:41;96346.00;;;7.88;69.96
69411;BME280;56604;48.652;9.194;2023-04-27T05:23:07;96341.81;;;7.99;68.99
69411;BME280;56604;48.652;9.194;2023-04-27T05:25:32;96344.28;;;8.17;68.64
69411;BME280;56604;48.652;9.194;2023-04-27T05:27:58;96350.41;;;8.34;69.55
69411;BME280;56604;48.652;9.194;2023-04-27T05:30:24;96346.59;;;8.66;68.00
69411;BME280;56604;48.652;9.194;2023-04-27T05:32:49;96352.00;;;8.76;67.33
69411;BME280;56604;48.652;9.194;2023-04-27T05:35:14;96350.34;;;8.87;67.68
69411;BME280;56604;48.652;9.194;2023-04-27T05:37:40;96346.28;;;8.79;67.20
69411;BME280;56604;48.652;9.194;2023-04-27T05:40:06;96349.34;;;9.05;67.71
69411;BME280;56604;48.652;9.194;2023-04-27T05:42:33;96344.38;;;9.20;66.64
69411;BME280;56604;48.652;9.194;2023-04-27T05:44:59;96350.03;;;9.45;66.11
69411;BME280;56604;48.652;9.194;2023-04-27T05:47:24;96342.94;;;9.63;66.23
69411;BME280;56604;48.652;9.194;2023-04-27T05:49:50;96347.59;;;9.95;64.40
69411;BME280;56604;48.652;9.194;2023-04-27T05:52:17;96348.34;;;10.29;64.35
69411;BME280;56604;48.652;9.194;2023-04-27T05:54:48;96351.97;;;10.45;63.50
69411;BME280;56604;48.652;9.194;2023-04-27T05:57:14;96350.91;;;10.95;61.95
69411;BME280;56604;48.652;9.194;2023-04-27T05:59:40;96351.41;;;11.19;60.34
69411;BME280;56604;48.652;9.194;2023-04-27T06:02:05;96368.75;;;10.44;61.28
69411;BME280;56604;48.652;9.194;2023-04-27T06:04:31;96361.97;;;10.48;62.64
69411;BME280;56604;48.652;9.194;2023-04-27T06:06:57;96361.72;;;10.71;62.17
69411;BME280;56604;48.652;9.194;2023-04-27T06:09:23;96370.84;;;11.18;59.54
69411;BME280;56604;48.652;9.194;2023-04-27T06:11:48;96378.19;;;10.89;60.36
69411;BME280;56604;48.652;9.194;2023-04-27T06:14:13;96369.47;;;10.83;60.50
69411;BME280;56604;48.652;9.194;2023-04-27T06:16:39;96364.84;;;11.22;59.88
69411;BME280;56604;48.652;9.194;2023-04-27T06:19:05;96370.25;;;11.38;58.73
69411;BME280;56604;48.652;9.194;2023-04-27T06:21:34;96380.25;;;10.60;60.78
69411;BME280;56604;48.652;9.194;2023-04-27T06:24:00;96374.81;;;11.85;59.31
69411;BME280;56604;48.652;9.194;2023-04-27T06:26:26;96383.53;;;11.53;57.82
69411;BME280;56604;48.652;9.194;2023-04-27T06:28:51;96392.25;;;11.26;59.41
69411;BME280;56604;48.652;9.194;2023-04-27T06:31:16;96391.34;;;10.89;60.90
69411;BME280;56604;48.652;9.194;2023-04-27T06:33:42;96378.72;;;12.14;57.86
69411;BME280;56604;48.652;9.194;2023-04-27T06:36:07;96384.75;;;12.63;55.63
69411;BME280;56604;48.652;9.194;2023-04-27T06:38:33;96391.69;;;11.52;58.88
69411;BME280;56604;48.652;9.194;2023-04-27T06:40:58;96395.38;;;12.25;57.19
69411;BME280;56604;48.652;9.194;2023-04-27T06:43:24;96395.81;;;12.59;55.55
69411;BME280;56604;48.652;9.194;2023-04-27T06:45:49;96394.31;;;12.21;57.63
69411;BME280;56604;48.652;9.194;2023-04-27T06:48:14;96388.59;;;12.40;56.73
69411;BME280;56604;48.652;9.194;2023-04-27T06:50:41;96397.00;;;12.99;55.09
69411;BME280;56604;48.652;9.194;2023-04-27T06:53:06;96394.59;;;12.25;56.80
69411;BME280;56604;48.652;9.194;2023-04-27T06:55:32;96390.81;;;12.63;56.46
69411;BME280;56604;48.652;9.194;2023-04-27T06:57:57;96402.75;;;12.76;54.65
69411;BME280;56604;48.652;9.194;2023-04-27T07:00:23;96401.41;;;12.73;56.54
69411;BME280;56604;48.652;9.194;2023-04-27T07:02:48;96397.91;;;12.57;54.78
69411;BME280;56604;48.652;9.194;2023-04-27T07:05:14;96395.50;;;13.34;53.88
69411;BME280;56604;48.652;9.194;2023-04-27T07:07:39;96393.94;;;13.74;52.20
69411;BME280;56604;48.652;9.194;2023-04-27T07:10:05;96391.69;;;14.63;50.63
69411;BME280;56604;48.652;9.194;2023-04-27T07:12:31;96388.16;;;15.27;49.58
69411;BME280;56604;48.652;9.194;2023-04-27T07:14:56;96395.31;;;15.66;46.30
69411;BME280;56604;48.652;9.194;2023-04-27T07:17:21;96395.00;;;14.09;50.24
69411;BME280;56604;48.652;9.194;2023-04-27T07:19:47;96400.66;;;15.22;47.58
69411;BME280;56604;48.652;9.194;2023-04-27T07:22:12;96388.44;;;16.77;43.93
69411;BME280;56604;48.652;9.194;2023-04-27T07:24:39;96393.69;;;17.01;42.96
69411;BME280;56604;48.652;9.194;2023-04-27T07:27:05;96394.66;;;16.62;40.87
69411;BME280;56604;48.652;9.194;2023-04-27T07:29:31;96397.72;;;16.98;41.97
69411;BME280;56604;48.652;9.194;2023-04-27T07:31:56;96388.13;;;18.06;40.54
69411;BME280;56604;48.652;9.194;2023-04-27T07:34:21;96393.41;;;18.25;39.78
69411;BME280;56604;48.652;9.194;2023-04-27T07:36:47;96392.31;;;17.79;40.83
69411;BME280;56604;48.652;9.194;2023-04-27T07:39:12;96398.97;;;17.25;41.99
69411;BME280;56604;48.652;9.194;2023-04-27T07:41:38;96395.16;;;18.15;39.86
69411;BME280;56604;48.652;9.194;2023-04-27T07:44:03;96400.22;;;16.17;42.92
69411;BME280;56604;48.652;9.194;2023-04-27T07:46:29;96386.25;;;18.06;41.29
69411;BME280;56604;48.652;9.194;2023-04-27T07:48:55;96389.22;;;18.05;38.71
69411;BME280;56604;48.652;9.194;2023-04-27T07:51:24;96392.06;;;19.32;37.86
69411;BME280;56604;48.652;9.194;2023-04-27T07:53:49;96394.28;;;18.20;38.76
69411;BME280;56604;48.652;9.194;2023-04-27T07:56:15;96383.88;;;20.28;36.66
69411;BME280;56604;48.652;9.194;2023-04-27T07:58:42;96388.53;;;20.93;33.84
69411;BME280;56604;48.652;9.194;2023-04-27T08:01:07;96390.47;;;21.53;33.06
69411;BME280;56604;48.652;9.194;2023-04-27T08:03:33;96391.66;;;20.78;35.74
69411;BME280;56604;48.652;9.194;2023-04-27T08:05:58;96391.84;;;21.25;34.27
69411;BME280;56604;48.652;9.194;2023-04-27T08:08:23;96389.38;;;21.37;34.95
69411;BME280;56604;48.652;9.194;2023-04-27T08:10:49;96386.78;;;20.88;35.10
69411;BME280;56604;48.652;9.194;2023-04-27T08:13:14;96390.75;;;21.26;34.84
69411;BME280;56604;48.652;9.194;2023-04-27T08:15:39;96387.44;;;21.98;32.27
69411;BME280;56604;48.652;9.194;2023-04-27T08:18:05;96386.56;;;22.33;33.29
69411;BME280;56604;48.652;9.194;2023-04-27T08:20:30;96383.53;;;22.43;32.59
69411;BME280;56604;48.652;9.194;2023-04-27T08:22:55;96387.00;;;21.62;33.37
69411;BME280;56604;48.652;9.194;2023-04-27T08:25:21;96378.81;;;21.15;33.98
69411;BME280;56604;48.652;9.194;2023-04-27T08:27:46;96374.41;;;21.19;35.21
69411;BME280;56604;48.652;9.194;2023-04-27T08:30:12;96376.34;;;18.53;38.10
69411;BME280;56604;48.652;9.194;2023-04-27T08:32:37;96375.56;;;18.53;38.32
69411;BME280;56604;48.652;9.194;2023-04-27T08:35:03;96369.72;;;18.92;37.47
69411;BME280;56604;48.652;9.194;2023-04-27T08:37:28;96378.19;;;19.08;36.80
69411;BME280;56604;48.652;9.194;2023-04-27T08:39:53;96373.16;;;19.88;38.71
69411;BME280;56604;48.652;9.194;2023-04-27T08:42:19;96365.75;;;19.40;38.21
69411;BME280;56604;48.652;9.194;2023-04-27T08:44:44;96362.03;;;19.49;39.87
69411;BME280;56604;48.652;9.194;2023-04-27T08:47:10;96369.63;;;18.97;37.72
69411;BME280;56604;48.652;9.194;2023-04-27T08:49:36;96375.78;;;17.63;41.63
69411;BME280;56604;48.652;9.194;2023-04-27T08:52:14;96373.31;;;17.34;40.49
69411;BME280;56604;48.652;9.194;2023-04-27T08:54:39;96378.13;;;16.94;42.66
69411;BME280;56604;48.652;9.194;2023-04-27T08:57:12;96366.88;;;18.61;40.96
69411;BME280;56604;48.652;9.194;2023-04-27T08:59:38;96369.53;;;18.06;40.69
69411;BME280;56604;48.652;9.194;2023-04-27T09:02:04;96371.88;;;17.74;43.28
69411;BME280;56604;48.652;9.194;2023-04-27T09:04:38;96372.00;;;18.43;41.35
69411;BME280;56604;48.652;9.194;2023-04-27T09:07:14;96362.34;;;18.75;37.69
69411;BME280;56604;48.652;9.194;2023-04-27T09:09:39;96375.91;;;17.39;40.13
69411;BME280;56604;48.652;9.194;2023-04-27T09:12:19;96365.06;;;18.01;41.01
69411;BME280;56604;48.652;9.194;2023-04-27T09:14:58;96377.53;;;17.35;40.88
69411;BME280;56604;48.652;9.194;2023-04-27T09:17:27;96370.44;;;17.12;41.32
69411;BME280;56604;48.652;9.194;2023-04-27T09:20:07;96366.06;;;17.40;42.47
69411;BME280;56604;48.652;9.194;2023-04-27T09:22:49;96365.69;;;17.46;42.16
69411;BME280;56604;48.652;9.194;2023-04-27T09:25:30;96370.97;;;16.71;41.85
69411;BME280;56604;48.652;9.194;2023-04-27T09:27:56;96376.25;;;16.95;41.34
69411;BME280;56604;48.652;9.194;2023-04-27T09:30:22;96378.63;;;17.67;40.31
69411;BME280;56604;48.652;9.194;2023-04-27T09:32:52;96376.72;;;16.78;41.46
69411;BME280;56604;48.652;9.194;2023-04-27T09:35:24;96374.09;;;17.16;40.93
69411;BME280;56604;48.652;9.194;2023-04-27T09:37:50;96368.13;;;17.24;42.13
69411;BME280;56604;48.652;9.194;2023-04-27T09:40:23;96360.28;;;17.51;41.77
69411;BME280;56604;48.652;9.194;2023-04-27T09:43:00;96368.25;;;16.52;41.62
69411;BME280;56604;48.652;9.194;2023-04-27T09:45:28;96362.50;;;17.44;40.73
69411;BME280;56604;48.652;9.194;2023-04-27T09:47:54;96362.41;;;17.17;41.46
69411;BME280;56604;48.652;9.194;2023-04-27T09:50:19;96372.31;;;16.44;41.50
69411;BME280;56604;48.652;9.194;2023-04-27T09:52:46;96365.28;;;17.53;41.33
69411;BME280;56604;48.652;9.194;2023-04-27T09:55:19;96366.19;;;16.92;40.31
69411;BME280;56604;48.652;9.194;2023-04-27T09:57:57;96365.25;;;17.01;42.74
69411;BME280;56604;48.652;9.194;2023-04-27T10:00:37;96365.06;;;16.98;41.42
69411;BME280;56604;48.652;9.194;2023-04-27T10:03:15;96355.22;;;18.15;41.68
69411;BME280;56604;48.652;9.194;2023-04-27T10:08:33;96364.56;;;17.15;40.29
69411;BME280;56604;48.652;9.194;2023-04-27T10:10:59;96362.44;;;16.74;42.43
69411;BME280;56604;48.652;9.194;2023-04-27T10:13:25;96364.34;;;16.92;44.60
69411;BME280;56604;48.652;9.194;2023-04-27T10:15:51;96357.59;;;16.76;43.72
69411;BME280;56604;48.652;9.194;2023-04-27T10:18:28;96370.94;;;15.99;42.84
69411;BME280;56604;48.652;9.194;2023-04-27T10:20:55;96362.47;;;15.62;45.09
69411;BME280;56604;48.652;9.194;2023-04-27T10:23:25;96366.06;;;15.42;44.63
69411;BME280;56604;48.652;9.194;2023-04-27T10:25:52;96372.66;;;15.11;44.32
69411;BME280;56604;48.652;9.194;2023-04-27T10:28:17;96365.88;;;15.34;44.45
69411;BME280;56604;48.652;9.194;2023-04-27T10:30:45;96370.59;;;15.42;45.99
69411;BME280;56604;48.652;9.194;2023-04-27T10:33:15;96366.53;;;15.15;44.33
69411;BME280;56604;48.652;9.194;2023-04-27T10:35:43;96365.22;;;15.13;47.21
69411;BME280;56604;48.652;9.194;2023-04-27T10:38:16;96360.25;;;15.06;46.39
69411;BME280;56604;48.652;9.194;2023-04-27T10:41:02;96355.25;;;15.39;45.67
69411;BME280;56604;48.652;9.194;2023-04-27T10:43:31;96354.78;;;15.66;44.48
69411;BME280;56604;48.652;9.194;2023-04-27T10:46:08;96344.06;;;16.34;49.00
69411;BME280;56604;48.652;9.194;2023-04-27T10:48:33;96341.56;;;16.62;41.67
69411;BME280;56604;48.652;9.194;2023-04-27T10:51:00;96344.34;;;15.80;44.63
69411;BME280;56604;48.652;9.194;2023-04-27T10:55:56;96331.47;;;16.21;42.75
69411;BME280;56604;48.652;9.194;2023-04-27T10:58:22;96342.97;;;16.35;48.12
69411;BME280;56604;48.652;9.194;2023-04-27T11:00:47;96341.56;;;16.19;43.87
69411;BME280;56604;48.652;9.194;2023-04-27T11:03:13;96341.28;;;15.62;43.52
69411;BME280;56604;48.652;9.194;2023-04-27T11:05:41;96345.69;;;16.06;45.33
69411;BME280;56604;48.652;9.194;2023-04-27T11:08:11;96339.00;;;16.33;43.29
69411;BME280;56604;48.652;9.194;2023-04-27T11:10:39;96340.03;;;16.13;42.76
69411;BME280;56604;48.652;9.194;2023-04-27T11:13:07;96346.16;;;16.80;44.01
69411;BME280;56604;48.652;9.194;2023-04-27T11:15:46;96336.56;;;16.60;41.92
69411;BME280;56604;48.652;9.194;2023-04-27T11:18:13;96341.16;;;16.55;41.74
69411;BME280;56604;48.652;9.194;2023-04-27T11:20:38;96339.28;;;16.79;41.39
69411;BME280;56604;48.652;9.194;2023-04-27T11:23:03;96340.13;;;17.13;40.47
69411;BME280;56604;48.652;9.194;2023-04-27T11:25:30;96342.34;;;17.24;41.18
69411;BME280;56604;48.652;9.194;2023-04-27T11:27:56;96334.69;;;16.85;41.45
69411;BME280;56604;48.652;9.194;2023-04-27T11:30:22;96336.69;;;16.93;41.87
69411;BME280;56604;48.652;9.194;2023-04-27T11:32:48;96335.25;;;16.82;42.22
69411;BME280;56604;48.652;9.194;2023-04-27T11:35:14;96338.69;;;17.39;42.57
69411;BME280;56604;48.652;9.194;2023-04-27T11:37:40;96332.59;;;17.20;41.59
69411;BME280;56604;48.652;9.194;2023-04-27T11:40:06;96334.25;;;16.78;40.50
69411;BME280;56604;48.652;9.194;2023-04-27T11:42:33;96337.97;;;16.34;40.65
69411;BME280;56604;48.652;9.194;2023-04-27T11:45:06;96336.78;;;16.45;41.23
69411;BME280;56604;48.652;9.194;2023-04-27T11:47:32;96339.63;;;16.25;41.74
69411;BME280;56604;48.652;9.194;2023-04-27T11:50:02;96347.28;;;16.02;41.76
69411;BME280;56604;48.652;9.194;2023-04-27T11:52:33;96346.28;;;16.22;40.91
69411;BME280;56604;48.652;9.194;2023-04-27T11:55:00;96343.97;;;16.15;41.30
69411;BME280;56604;48.652;9.194;2023-04-27T11:57:27;96339.69;;;15.95;41.01
69411;BME280;56604;48.652;9.194;2023-04-27T11:59:54;96338.22;;;16.56;41.04
69411;BME280;56604;48.652;9.194;2023-04-27T12:02:20;96339.75;;;16.62;39.85
69411;BME280;56604;48.652;9.194;2023-04-27T12:04:47;96337.41;;;16.80;40.79
69411;BME280;56604;48.652;9.194;2023-04-27T12:07:12;96332.09;;;17.18;40.98
69411;BME280;56604;48.652;9.194;2023-04-27T12:09:38;96325.03;;;17.27;38.88
69411;BME280;56604;48.652;9.194;2023-04-27T12:12:03;96328.94;;;17.16;40.36
69411;BME280;56604;48.652;9.194;2023-04-27T12:14:29;96327.50;;;17.04;39.37
69411;BME280;56604;48.652;9.194;2023-04-27T12:16:54;96322.91;;;17.29;42.00
69411;BME280;56604;48.652;9.194;2023-04-27T12:19:20;96313.09;;;17.43;40.01
69411;BME280;56604;48.652;9.194;2023-04-27T12:21:48;96316.41;;;17.35;38.86
69411;BME280;56604;48.652;9.194;2023-04-27T12:24:13;96322.94;;;16.91;40.15
69411;BME280;56604;48.652;9.194;2023-04-27T12:26:38;96319.38;;;17.15;40.24
69411;BME280;56604;48.652;9.194;2023-04-27T12:29:04;96320.56;;;17.41;40.57
69411;BME280;56604;48.652;9.194;2023-04-27T12:31:29;96323.34;;;17.36;39.58
69411;BME280;56604;48.652;9.194;2023-04-27T12:33:55;96315.50;;;17.59;37.75
69411;BME280;56604;48.652;9.194;2023-04-27T12:36:20;96320.09;;;17.39;38.11
69411;BME280;56604;48.652;9.194;2023-04-27T12:38:45;96316.19;;;17.50;40.37
69411;BME280;56604;48.652;9.194;2023-04-27T12:41:11;96321.00;;;17.48;38.22
69411;BME280;56604;48.652;9.194;2023-04-27T12:43:36;96321.59;;;17.07;38.71
69411;BME280;56604;48.652;9.194;2023-04-27T12:46:02;96319.78;;;17.41;38.01
69411;BME280;56604;48.652;9.194;2023-04-27T12:48:28;96315.59;;;17.86;38.62
69411;BME280;56604;48.652;9.194;2023-04-27T12:50:53;96312.75;;;17.64;38.33
69411;BME280;56604;48.652;9.194;2023-04-27T12:53:18;96310.53;;;17.38;39.89
69411;BME280;56604;48.652;9.194;2023-04-27T12:55:44;96307.03;;;18.45;38.98
69411;BME280;56604;48.652;9.194;2023-04-27T12:58:09;96295.81;;;18.20;37.86
69411;BME280;56604;48.652;9.194;2023-04-27T13:00:34;96304.91;;;17.72;40.60
69411;BME280;56604;48.652;9.194;2023-04-27T13:02:59;96306.34;;;17.51;38.58
69411;BME280;56604;48.652;9.194;2023-04-27T13:05:25;96304.38;;;17.57;40.00
69411;BME280;56604;48.652;9.194;2023-04-27T13:07:51;96308.75;;;17.34;39.39